createdAt,value
2018-07-28T00:01:33.472Z,16.28
2018-07-28T00:04:01.578Z,16.20
2018-07-28T00:06:29.648Z,16.15
2018-07-28T00:08:57.769Z,16.13
2018-07-28T00:11:25.785Z,16.09
2018-07-28T00:13:53.887Z,16.04
2018-07-28T00:16:21.994Z,15.98
2018-07-28T00:18:50.074Z,15.94
2018-07-28T00:21:18.227Z,16.01
2018-07-28T00:23:46.296Z,15.97
2018-07-28T00:26:18.110Z,15.94
2018-07-28T00:28:47.598Z,15.96
2018-07-28T00:31:15.660Z,15.95
2018-07-28T00:33:43.957Z,15.95
2018-07-28T00:36:12.190Z,15.93
2018-07-28T00:38:40.429Z,15.92
2018-07-28T00:41:08.584Z,15.91
2018-07-28T00:43:36.704Z,15.84
2018-07-28T00:46:04.915Z,15.77
2018-07-28T00:48:32.951Z,15.81
2018-07-28T00:51:01.065Z,16.07
2018-07-28T00:53:29.210Z,16.00
2018-07-28T00:55:57.213Z,15.93
2018-07-28T00:58:25.338Z,15.95
2018-07-28T01:00:53.402Z,15.93
2018-07-28T01:03:21.534Z,15.84
2018-07-28T01:05:49.579Z,15.92
2018-07-28T01:08:17.709Z,15.84
2018-07-28T01:10:45.762Z,15.79
2018-07-28T01:13:13.820Z,15.82
2018-07-28T01:15:41.906Z,15.86
2018-07-28T01:18:09.976Z,15.84
2018-07-28T01:20:38.119Z,15.94
2018-07-28T01:23:06.171Z,15.96
2018-07-28T01:25:34.257Z,15.97
2018-07-28T01:28:02.355Z,15.97
2018-07-28T01:30:31.967Z,16.18
2018-07-28T01:33:00.748Z,16.05
2018-07-28T01:35:29.312Z,15.92
2018-07-28T01:37:57.357Z,15.90
2018-07-28T01:40:25.430Z,15.77
2018-07-28T01:42:53.469Z,15.73
2018-07-28T01:45:21.546Z,15.78
2018-07-28T01:47:49.674Z,15.76
2018-07-28T01:50:17.720Z,15.76
2018-07-28T01:52:45.816Z,15.58
2018-07-28T01:55:13.875Z,15.61
2018-07-28T01:57:41.900Z,15.62
2018-07-28T02:00:10.178Z,15.59
2018-07-28T02:02:38.299Z,15.63
2018-07-28T02:05:07.884Z,15.65
2018-07-28T02:07:35.983Z,15.70
2018-07-28T02:10:04.304Z,15.69
2018-07-28T02:12:32.467Z,15.67
2018-07-28T02:15:00.599Z,15.76
2018-07-28T02:17:28.638Z,15.90
2018-07-28T02:19:56.699Z,15.81
2018-07-28T02:22:24.825Z,15.74
2018-07-28T02:24:52.818Z,15.74
2018-07-28T02:27:20.930Z,15.73
2018-07-28T02:29:49.026Z,15.70
2018-07-28T02:32:17.203Z,15.64
2018-07-28T02:34:45.370Z,15.63
2018-07-28T02:37:13.393Z,15.64
2018-07-28T02:39:41.429Z,15.64
2018-07-28T02:42:09.487Z,15.53
2018-07-28T02:44:37.668Z,15.49
2018-07-28T02:47:05.755Z,15.54
2018-07-28T02:49:33.832Z,15.49
2018-07-28T02:52:01.934Z,15.47
2018-07-28T02:54:29.996Z,15.45
2018-07-28T02:56:58.097Z,15.33
2018-07-28T02:59:26.144Z,15.38
2018-07-28T03:01:54.299Z,15.40
2018-07-28T03:04:22.309Z,15.43
2018-07-28T03:06:50.349Z,15.42
2018-07-28T03:09:18.371Z,15.32
2018-07-28T03:11:46.400Z,15.34
2018-07-28T03:14:14.635Z,15.33
2018-07-28T03:16:42.651Z,15.29
2018-07-28T03:19:10.697Z,15.23
2018-07-28T03:21:38.875Z,15.18
2018-07-28T03:24:07.022Z,15.17
2018-07-28T03:26:35.204Z,15.20
2018-07-28T03:29:03.324Z,15.23
2018-07-28T03:31:31.417Z,15.25
2018-07-28T03:33:59.541Z,15.29
2018-07-28T03:36:27.742Z,15.32
2018-07-28T03:38:55.745Z,15.42
2018-07-28T03:41:23.788Z,15.55
2018-07-28T03:43:51.966Z,15.80
2018-07-28T03:46:20.114Z,15.89
2018-07-28T03:48:48.492Z,15.91
2018-07-28T03:51:16.758Z,15.88
2018-07-28T03:53:45.043Z,15.83
2018-07-28T03:56:13.277Z,15.91
2018-07-28T03:58:41.410Z,16.20
2018-07-28T04:01:09.579Z,16.24
2018-07-28T04:03:37.767Z,17.05
2018-07-28T04:06:05.972Z,18.31
2018-07-28T04:08:34.184Z,19.24
2018-07-28T04:11:02.272Z,20.28
2018-07-28T04:13:30.391Z,21.17
2018-07-28T04:15:58.445Z,21.29
2018-07-28T04:18:26.496Z,21.34
2018-07-28T04:20:54.467Z,20.74
2018-07-28T04:23:22.515Z,21.12
2018-07-28T04:25:50.548Z,21.59
2018-07-28T04:28:18.589Z,21.97
2018-07-28T04:30:46.541Z,22.37
2018-07-28T04:33:14.497Z,22.44
2018-07-28T04:35:42.540Z,22.40
2018-07-28T04:38:10.558Z,22.41
2018-07-28T04:40:38.590Z,22.68
2018-07-28T04:43:06.571Z,22.05
2018-07-28T04:45:34.875Z,21.66
2018-07-28T04:48:03.229Z,22.35
2018-07-28T04:50:31.533Z,22.38
2018-07-28T04:52:59.705Z,22.33
2018-07-28T04:55:27.755Z,21.79
2018-07-28T04:57:55.990Z,21.86
2018-07-28T05:00:24.207Z,21.66
2018-07-28T05:02:52.152Z,20.55
2018-07-28T05:05:20.169Z,19.35
2018-07-28T05:07:48.196Z,18.97
2018-07-28T05:10:16.225Z,18.36
2018-07-28T05:12:44.461Z,18.11
2018-07-28T05:15:12.731Z,17.88
2018-07-28T05:17:41.005Z,18.08
2018-07-28T05:20:09.341Z,17.73
2018-07-28T05:22:37.657Z,17.44
2018-07-28T05:25:05.949Z,17.49
2018-07-28T05:27:34.317Z,17.50
2018-07-28T05:30:02.736Z,17.50
2018-07-28T05:32:31.111Z,17.50
2018-07-28T05:34:59.337Z,17.80
2018-07-28T05:37:27.630Z,18.18
2018-07-28T05:39:55.901Z,18.61
2018-07-28T05:42:24.263Z,19.33
2018-07-28T05:44:52.634Z,19.77
2018-07-28T05:47:20.953Z,20.46
2018-07-28T05:49:49.297Z,21.05
2018-07-28T05:52:17.590Z,21.18
2018-07-28T05:54:45.846Z,22.30
2018-07-28T05:57:14.423Z,22.99
2018-07-28T05:59:42.990Z,23.23
2018-07-28T06:02:11.944Z,22.49
2018-07-28T06:04:40.457Z,22.82
2018-07-28T06:07:09.024Z,22.53
2018-07-28T06:09:37.509Z,22.05
2018-07-28T06:12:05.961Z,22.70
2018-07-28T06:14:34.365Z,22.88
2018-07-28T06:17:02.820Z,22.54
2018-07-28T06:19:31.556Z,22.99
2018-07-28T06:22:00.157Z,22.63
2018-07-28T06:24:28.811Z,23.03
2018-07-28T06:26:57.444Z,23.57
2018-07-28T06:29:25.928Z,23.54
2018-07-28T06:31:54.604Z,23.44
2018-07-28T06:34:23.259Z,24.33
2018-07-28T06:36:51.679Z,24.30
2018-07-28T06:39:20.186Z,24.63
2018-07-28T06:41:48.719Z,24.48
2018-07-28T06:44:17.192Z,24.45
2018-07-28T06:46:45.772Z,24.73
2018-07-28T06:49:14.215Z,24.11
2018-07-28T06:51:42.651Z,24.67
2018-07-28T06:54:11.741Z,24.61
2018-07-28T06:56:40.988Z,24.60
2018-07-28T06:59:09.631Z,24.57
2018-07-28T07:01:38.183Z,24.64
2018-07-28T07:04:06.672Z,25.05
2018-07-28T07:06:35.324Z,24.45
2018-07-28T07:09:06.516Z,23.78
2018-07-28T07:11:35.191Z,24.27
2018-07-28T07:14:03.942Z,24.74
2018-07-28T07:16:33.452Z,24.63
2018-07-28T07:19:02.326Z,24.81
2018-07-28T07:21:31.080Z,24.91
2018-07-28T07:23:59.899Z,24.77
2018-07-28T07:26:28.683Z,24.84
2018-07-28T07:28:58.723Z,25.16
2018-07-28T07:31:27.937Z,25.40
2018-07-28T07:33:56.816Z,25.45
2018-07-28T07:36:25.364Z,25.56
2018-07-28T07:38:55.486Z,25.60
2018-07-28T07:41:23.911Z,25.94
2018-07-28T07:43:52.365Z,26.09
2018-07-28T07:46:22.299Z,25.54
2018-07-28T07:48:51.102Z,25.49
2018-07-28T07:51:19.599Z,25.25
2018-07-28T07:53:48.477Z,25.26
2018-07-28T07:56:17.491Z,24.83
2018-07-28T07:58:46.248Z,25.25
2018-07-28T08:01:15.123Z,25.37
2018-07-28T08:03:44.960Z,25.67
2018-07-28T08:06:13.704Z,25.51
2018-07-28T08:08:46.367Z,25.59
2018-07-28T08:11:15.329Z,25.85
2018-07-28T08:13:45.064Z,25.81
2018-07-28T08:16:14.326Z,26.26
2018-07-28T08:18:42.892Z,26.44
2018-07-28T08:21:11.364Z,25.73
2018-07-28T08:23:40.949Z,26.15
2018-07-28T08:26:09.843Z,25.89
2018-07-28T08:28:38.603Z,25.43
2018-07-28T08:31:07.453Z,25.29
2018-07-28T08:33:36.093Z,25.65
2018-07-28T08:36:04.853Z,25.71
2018-07-28T08:38:33.596Z,26.00
2018-07-28T08:41:02.170Z,25.91
2018-07-28T08:43:30.740Z,26.27
2018-07-28T08:45:59.620Z,26.40
2018-07-28T08:48:30.233Z,26.39
2018-07-28T08:50:58.865Z,26.29
2018-07-28T08:53:27.457Z,27.09
2018-07-28T08:55:56.148Z,27.09
2018-07-28T08:58:24.820Z,27.64
2018-07-28T09:00:53.858Z,27.70
2018-07-28T09:03:22.751Z,28.35
2018-07-28T09:05:52.889Z,28.26
2018-07-28T09:08:25.307Z,28.54
2018-07-28T09:10:54.212Z,28.56
2018-07-28T09:13:23.122Z,28.40
2018-07-28T09:15:51.740Z,28.40
2018-07-28T09:18:20.286Z,28.28
2018-07-28T09:20:48.955Z,28.01
2018-07-28T09:23:17.193Z,27.81
2018-07-28T09:25:45.406Z,26.92
2018-07-28T09:28:13.810Z,27.29
2018-07-28T09:30:42.370Z,28.06
2018-07-28T09:33:10.655Z,26.98
2018-07-28T09:35:38.999Z,26.18
2018-07-28T09:38:07.406Z,25.83
2018-07-28T09:40:35.475Z,25.48
2018-07-28T09:43:04.190Z,26.19
2018-07-28T09:45:32.729Z,26.51
2018-07-28T09:48:02.673Z,26.59
2018-07-28T09:50:32.819Z,26.96
2018-07-28T09:53:01.092Z,27.47
2018-07-28T09:55:29.571Z,28.10
2018-07-28T09:57:57.920Z,28.54
2018-07-28T10:00:31.759Z,28.92
2018-07-28T10:03:00.108Z,28.84
2018-07-28T10:05:28.701Z,28.03
2018-07-28T10:07:57.126Z,28.07
2018-07-28T10:10:25.944Z,28.69
2018-07-28T10:12:54.147Z,29.13
2018-07-28T10:15:22.428Z,29.19
2018-07-28T10:17:50.900Z,28.89
2018-07-28T10:20:19.395Z,28.21
2018-07-28T10:22:47.878Z,28.28
2018-07-28T10:25:16.296Z,28.89
2018-07-28T10:27:44.701Z,28.78
2018-07-28T10:30:12.957Z,29.14
2018-07-28T10:32:41.319Z,28.57
2018-07-28T10:35:11.073Z,28.70
2018-07-28T10:37:39.756Z,29.29
2018-07-28T10:40:08.983Z,29.38
2018-07-28T10:42:39.001Z,29.88
2018-07-28T10:45:07.669Z,30.05
2018-07-28T10:47:35.962Z,30.28
2018-07-28T10:50:05.276Z,29.65
2018-07-28T10:52:33.504Z,29.28
2018-07-28T10:55:01.680Z,29.12
2018-07-28T10:57:30.058Z,28.95
2018-07-28T10:59:58.482Z,28.60
2018-07-28T11:02:26.966Z,28.13
2018-07-28T11:04:55.107Z,28.18
2018-07-28T11:07:23.559Z,28.59
2018-07-28T11:09:51.742Z,28.57
2018-07-28T11:12:20.073Z,28.49
2018-07-28T11:14:48.237Z,28.61
2018-07-28T11:17:16.406Z,28.26
2018-07-28T11:19:44.522Z,28.00
2018-07-28T11:22:12.768Z,28.12
2018-07-28T11:24:40.858Z,28.42
2018-07-28T11:27:09.005Z,29.37
2018-07-28T11:29:37.611Z,29.63
2018-07-28T11:32:17.018Z,29.42
2018-07-28T11:34:56.114Z,29.06
2018-07-28T11:37:35.405Z,28.93
2018-07-28T11:40:14.617Z,29.54
2018-07-28T11:42:54.443Z,29.25
2018-07-28T11:45:23.122Z,29.43
2018-07-28T11:47:52.588Z,28.76
2018-07-28T11:50:20.714Z,28.39
2018-07-28T11:52:49.303Z,28.63
2018-07-28T11:55:17.572Z,28.85
2018-07-28T11:57:46.058Z,29.36
2018-07-28T12:00:15.115Z,29.43
2018-07-28T12:02:43.603Z,29.25
2018-07-28T12:05:12.440Z,28.40
2018-07-28T12:07:40.874Z,28.07
2018-07-28T12:10:09.929Z,27.49
2018-07-28T12:12:38.497Z,27.42
2018-07-28T12:15:07.921Z,26.96
2018-07-28T12:17:36.690Z,27.43
2018-07-28T12:20:06.433Z,27.14
2018-07-28T12:22:35.057Z,27.24
2018-07-28T12:25:03.676Z,26.77
2018-07-28T12:27:32.678Z,26.94
2018-07-28T12:30:01.044Z,26.82
2018-07-28T12:32:29.775Z,27.00
2018-07-28T12:34:58.192Z,26.74
2018-07-28T12:37:26.586Z,26.32
2018-07-28T12:39:54.968Z,26.34
2018-07-28T12:42:23.729Z,26.52
2018-07-28T12:44:52.273Z,26.29
2018-07-28T12:47:20.593Z,26.26
2018-07-28T12:49:48.995Z,26.27
2018-07-28T12:52:17.541Z,26.07
2018-07-28T12:54:45.988Z,26.35
2018-07-28T12:57:14.490Z,26.41
2018-07-28T12:59:43.072Z,26.10
2018-07-28T13:02:11.615Z,26.21
2018-07-28T13:04:39.965Z,26.46
2018-07-28T13:07:08.715Z,26.48
2018-07-28T13:09:38.373Z,26.54
2018-07-28T13:12:06.978Z,26.77
2018-07-28T13:14:35.384Z,26.83
2018-07-28T13:17:03.844Z,26.85
2018-07-28T13:19:32.732Z,26.74
2018-07-28T13:22:01.086Z,26.80
2018-07-28T13:24:30.012Z,26.82
2018-07-28T13:26:58.760Z,26.81
2018-07-28T13:29:29.403Z,26.75
2018-07-28T13:31:58.425Z,26.74
2018-07-28T13:34:26.915Z,26.73
2018-07-28T13:36:57.826Z,26.63
2018-07-28T13:39:26.615Z,26.57
2018-07-28T13:41:55.425Z,26.75
2018-07-28T13:44:23.949Z,27.18
2018-07-28T13:46:52.806Z,27.21
2018-07-28T13:49:21.496Z,27.22
2018-07-28T13:51:50.684Z,26.95
2018-07-28T13:54:19.337Z,26.99
2018-07-28T13:56:48.045Z,27.28
2018-07-28T13:59:16.515Z,26.96
2018-07-28T14:01:44.932Z,27.00
2018-07-28T14:04:13.463Z,26.93
2018-07-28T14:06:42.156Z,26.80
2018-07-28T14:09:11.177Z,26.65
2018-07-28T14:11:40.932Z,26.28
2018-07-28T14:14:10.169Z,26.19
2018-07-28T14:16:39.362Z,26.11
2018-07-28T14:19:09.242Z,26.07
2018-07-28T14:21:38.619Z,26.21
2018-07-28T14:24:07.572Z,26.30
2018-07-28T14:26:36.007Z,26.02
2018-07-28T14:29:04.831Z,26.08
2018-07-28T14:31:33.565Z,26.48
2018-07-28T14:34:02.400Z,26.70
2018-07-28T14:36:31.060Z,26.79
2018-07-28T14:39:01.654Z,27.01
2018-07-28T14:41:30.249Z,27.03
2018-07-28T14:43:58.728Z,26.83
2018-07-28T14:46:27.101Z,26.93
2018-07-28T14:48:55.548Z,27.10
2018-07-28T14:51:24.797Z,27.20
2018-07-28T14:53:53.730Z,27.16
2018-07-28T14:56:23.445Z,27.25
2018-07-28T14:58:52.176Z,27.27
2018-07-28T15:01:22.136Z,27.39
2018-07-28T15:03:51.783Z,27.52
2018-07-28T15:06:22.402Z,27.50
2018-07-28T15:08:54.101Z,27.64
2018-07-28T15:11:23.063Z,27.50
2018-07-28T15:13:52.916Z,27.42
2018-07-28T15:16:23.147Z,27.49
2018-07-28T15:18:57.344Z,27.38
2018-07-28T15:21:28.363Z,27.15
2018-07-28T15:23:58.140Z,27.10
2018-07-28T15:26:26.717Z,26.95
2018-07-28T15:28:58.770Z,26.84
2018-07-28T15:31:27.297Z,26.94
2018-07-28T15:33:56.031Z,26.82
2018-07-28T15:36:24.723Z,26.79
2018-07-28T15:38:53.241Z,26.85
2018-07-28T15:41:29.721Z,26.88
2018-07-28T15:44:01.388Z,27.13
2018-07-28T15:46:30.893Z,27.13
2018-07-28T15:49:07.482Z,26.97
2018-07-28T15:51:36.842Z,27.10
2018-07-28T15:54:08.497Z,26.90
2018-07-28T15:56:41.493Z,26.84
2018-07-28T15:59:13.377Z,26.87
2018-07-28T16:01:45.669Z,26.74
2018-07-28T16:04:15.310Z,26.59
2018-07-28T16:06:50.234Z,26.55
2018-07-28T16:09:27.207Z,26.61
2018-07-28T16:11:59.901Z,26.37
2018-07-28T16:14:29.308Z,26.26
2018-07-28T16:16:58.797Z,26.05
2018-07-28T16:19:32.314Z,25.98
2018-07-28T16:22:01.984Z,25.68
2018-07-28T16:24:31.672Z,25.60
2018-07-28T16:27:00.760Z,25.37
2018-07-28T16:29:30.659Z,25.27
2018-07-28T16:32:00.685Z,25.10
2018-07-28T16:34:30.737Z,24.94
2018-07-28T16:37:01.662Z,24.74
2018-07-28T16:39:32.747Z,24.65
2018-07-28T16:42:01.975Z,24.65
2018-07-28T16:44:30.751Z,24.70
2018-07-28T16:47:02.487Z,24.69
2018-07-28T16:49:31.567Z,24.66
2018-07-28T16:52:03.159Z,24.66
2018-07-28T16:54:32.129Z,24.57
2018-07-28T16:57:02.880Z,24.62
2018-07-28T16:59:35.401Z,24.59
2018-07-28T17:02:04.647Z,24.59
2018-07-28T17:04:34.583Z,24.49
2018-07-28T17:07:04.430Z,24.50
2018-07-28T17:09:35.697Z,24.47
2018-07-28T17:12:04.736Z,24.21
2018-07-28T17:14:34.429Z,24.10
2018-07-28T17:17:05.533Z,23.97
2018-07-28T17:19:34.790Z,23.80
2018-07-28T17:22:10.739Z,23.70
2018-07-28T17:24:39.877Z,23.47
2018-07-28T17:27:10.719Z,23.33
2018-07-28T17:29:43.999Z,23.18
2018-07-28T17:32:12.715Z,23.14
2018-07-28T17:34:41.469Z,22.98
2018-07-28T17:37:40.278Z,22.85
2018-07-28T17:40:31.115Z,22.69
2018-07-28T17:43:29.851Z,22.54
2018-07-28T17:46:02.328Z,22.41
2018-07-28T17:48:37.566Z,22.27
2018-07-28T17:51:13.970Z,22.21
2018-07-28T17:53:44.069Z,22.17
2018-07-28T17:56:14.065Z,22.00
2018-07-28T17:58:44.590Z,22.03
2018-07-28T18:01:41.744Z,21.89
2018-07-28T18:04:34.082Z,21.74
2018-07-28T18:07:02.977Z,21.63
2018-07-28T18:09:36.181Z,21.54
2018-07-28T18:12:05.156Z,21.44
2018-07-28T18:14:34.046Z,21.36
2018-07-28T18:17:03.018Z,21.29
2018-07-28T18:19:32.647Z,21.18
2018-07-28T18:22:01.453Z,21.15
2018-07-28T18:24:29.945Z,21.05
2018-07-28T18:26:58.424Z,20.92
2018-07-28T18:29:29.281Z,20.83
2018-07-28T18:31:57.616Z,20.82
2018-07-28T18:34:26.270Z,20.78
2018-07-28T18:36:54.875Z,20.70
2018-07-28T18:39:23.630Z,20.72
2018-07-28T18:41:52.475Z,20.78
2018-07-28T18:44:21.395Z,20.66
2018-07-28T18:46:50.063Z,20.66
2018-07-28T18:49:25.269Z,20.65
2018-07-28T18:51:54.281Z,20.58
2018-07-28T18:54:23.037Z,20.46
2018-07-28T18:56:51.562Z,20.42
2018-07-28T18:59:25.433Z,20.43
2018-07-28T19:01:54.131Z,20.46
2018-07-28T19:04:23.023Z,20.37
2018-07-28T19:06:51.557Z,20.37
2018-07-28T19:09:36.896Z,20.26
2018-07-28T19:12:05.921Z,20.31
2018-07-28T19:14:36.265Z,20.25
2018-07-28T19:17:05.153Z,20.21
2018-07-28T19:19:34.006Z,20.20
2018-07-28T19:22:03.258Z,20.23
2018-07-28T19:24:31.926Z,20.23
2018-07-28T19:27:00.626Z,20.22
2018-07-28T19:29:38.347Z,20.25
2018-07-28T19:32:07.505Z,20.15
2018-07-28T19:34:36.392Z,20.14
2018-07-28T19:37:11.273Z,20.11
2018-07-28T19:39:40.334Z,20.04
2018-07-28T19:42:14.456Z,20.14
2018-07-28T19:44:43.154Z,20.09
2018-07-28T19:47:11.734Z,20.00
2018-07-28T19:49:40.518Z,19.94
2018-07-28T19:52:09.184Z,19.88
2018-07-28T19:54:37.898Z,19.83
2018-07-28T19:57:06.530Z,19.84
2018-07-28T19:59:35.300Z,19.88
2018-07-28T20:02:03.959Z,19.86
2018-07-28T20:04:32.467Z,19.86
2018-07-28T20:07:01.158Z,19.73
2018-07-28T20:09:29.730Z,19.76
2018-07-28T20:11:58.370Z,19.64
2018-07-28T20:14:27.228Z,19.60
2018-07-28T20:16:55.935Z,19.55
2018-07-28T20:19:24.927Z,19.57
2018-07-28T20:21:53.458Z,19.53
2018-07-28T20:24:21.948Z,19.48
2018-07-28T20:26:50.464Z,19.42
2018-07-28T20:29:22.490Z,19.35
2018-07-28T20:31:50.953Z,19.31
2018-07-28T20:34:19.375Z,19.29
2018-07-28T20:36:48.372Z,19.26
2018-07-28T20:39:18.244Z,19.23
2018-07-28T20:41:46.670Z,19.19
2018-07-28T20:44:15.135Z,19.17
2018-07-28T20:46:43.734Z,19.09
2018-07-28T20:49:13.102Z,19.03
2018-07-28T20:51:41.522Z,19.04
2018-07-28T20:54:10.288Z,19.01
2018-07-28T20:56:38.813Z,19.01
2018-07-28T20:59:13.107Z,19.01
2018-07-28T21:01:41.604Z,19.03
2018-07-28T21:04:09.848Z,19.01
2018-07-28T21:06:38.139Z,18.96
2018-07-28T21:09:08.386Z,18.95
2018-07-28T21:11:37.209Z,18.92
2018-07-28T21:14:05.659Z,18.86
2018-07-28T21:16:34.095Z,18.86
2018-07-28T21:19:09.206Z,18.83
2018-07-28T21:21:37.582Z,18.81
2018-07-28T21:24:06.194Z,18.76
2018-07-28T21:26:34.642Z,18.68
2018-07-28T21:29:06.644Z,18.71
2018-07-28T21:31:35.121Z,18.75
2018-07-28T21:34:03.296Z,18.72
2018-07-28T21:36:31.520Z,18.69
2018-07-28T21:39:01.902Z,18.72
2018-07-28T21:41:30.404Z,18.73
2018-07-28T21:43:58.858Z,18.78
2018-07-28T21:46:27.010Z,18.81
2018-07-28T21:48:56.638Z,18.83
2018-07-28T21:51:25.083Z,18.89
2018-07-28T21:53:53.398Z,18.99
2018-07-28T21:56:23.880Z,19.00
2018-07-28T21:58:53.350Z,19.03
2018-07-28T22:01:21.693Z,19.11
2018-07-28T22:03:50.033Z,19.09
2018-07-28T22:06:18.429Z,19.10
2018-07-28T22:08:47.736Z,19.18
2018-07-28T22:11:16.285Z,19.14
2018-07-28T22:13:44.704Z,19.16
2018-07-28T22:16:13.199Z,19.16
2018-07-28T22:18:41.757Z,19.08
2018-07-28T22:21:11.588Z,19.10
2018-07-28T22:23:40.018Z,19.08
2018-07-28T22:26:08.407Z,19.05
2018-07-28T22:28:44.129Z,18.97
2018-07-28T22:31:12.484Z,18.97
2018-07-28T22:33:40.724Z,18.95
2018-07-28T22:36:09.012Z,19.03
2018-07-28T22:38:38.559Z,19.04
2018-07-28T22:41:06.910Z,18.87
2018-07-28T22:43:35.314Z,18.87
2018-07-28T22:46:03.684Z,18.82
2018-07-28T22:48:31.943Z,18.72
2018-07-28T22:51:00.321Z,18.71
2018-07-28T22:53:28.597Z,18.56
2018-07-28T22:55:56.870Z,18.55
2018-07-28T22:58:25.664Z,18.43
2018-07-28T23:00:53.966Z,18.36
2018-07-28T23:03:22.221Z,18.30
2018-07-28T23:05:50.553Z,18.25
2018-07-28T23:08:18.783Z,18.19
2018-07-28T23:10:47.063Z,18.21
2018-07-28T23:13:15.382Z,18.07
2018-07-28T23:15:43.737Z,17.98
2018-07-28T23:18:11.953Z,17.99
2018-07-28T23:20:40.239Z,17.87
2018-07-28T23:23:08.484Z,17.83
2018-07-28T23:25:36.788Z,17.85
2018-07-28T23:28:05.139Z,17.87
2018-07-28T23:30:34.311Z,17.84
2018-07-28T23:33:02.279Z,17.86
2018-07-28T23:35:30.347Z,17.86
2018-07-28T23:37:58.359Z,17.85
2018-07-28T23:40:26.476Z,17.78
2018-07-28T23:42:54.531Z,17.70
2018-07-28T23:45:22.584Z,17.71
2018-07-28T23:47:50.601Z,17.72
2018-07-28T23:50:19.718Z,17.69
2018-07-28T23:52:47.794Z,17.71
2018-07-28T23:55:15.894Z,17.70
2018-07-28T23:57:44.228Z,17.70
